Time;durP1;ratioP1;P1;durP2;ratioP2;P2;SDS_P1;SDS_P2;PMS_P1;PMS_P2;Temp;Humidity;BMP_temperature;BMP_pressure;BME280_temperature;BME280_humidity;BME280_pressure;Samples;Min_cycle;Max_cycle;Signal;HPM_P1;HPM_P2
2022/12/05 00:01:48;;;;;;;;;;;5.90;99.90;;;;;;5028616;28;20369;-61
2022/12/05 00:04:16;;;;;;;;;;;5.90;99.90;;;;;;5031777;28;20446;-61
2022/12/05 00:06:44;;;;;;;;;;;5.80;99.90;;;;;;5033202;28;19920;-61
2022/12/05 00:09:14;;;;;;;;;;;5.70;99.90;;;;;;5030656;28;19939;-61
2022/12/05 00:11:43;;;;;;;;;;;5.80;99.90;;;;;;5030858;28;19924;-61
2022/12/05 00:14:11;;;;;;;;;;;5.80;99.90;;;;;;5033380;28;19920;-61
2022/12/05 00:16:41;;;;;;;;;;;5.80;99.90;;;;;;5033243;28;20024;-61
2022/12/05 00:19:11;;;;;;;;;;;5.80;99.90;;;;;;5029170;28;19957;-62
2022/12/05 00:21:38;;;;;;;;;;;5.90;99.90;;;;;;5013506;28;19921;-62
2022/12/05 00:24:07;;;;;;;;;;;5.90;99.90;;;;;;5032717;28;19921;-62
2022/12/05 00:26:35;;;;;;;;;;;5.90;99.90;;;;;;5031162;28;19925;-62
2022/12/05 00:29:03;;;;;;;;;;;5.90;99.90;;;;;;5031084;28;20336;-62
2022/12/05 00:31:30;;;;;;;;;;;5.90;99.90;;;;;;5030288;28;19974;-61
2022/12/05 00:34:01;;;;;;;;;;;5.80;99.90;;;;;;5032795;28;20356;-61
2022/12/05 00:36:30;;;;;;;;;;;5.90;99.90;;;;;;5031952;28;19928;-61
2022/12/05 00:38:59;;;;;;;;;;;5.90;99.90;;;;;;5032672;28;19925;-61
2022/12/05 00:41:27;;;;;;;;;;;6.00;99.90;;;;;;5028303;28;19928;-61
2022/12/05 00:43:55;;;;;;;;;;;5.80;99.90;;;;;;5031526;28;19927;-61
2022/12/05 00:46:24;;;;;;;;;;;5.80;99.90;;;;;;5030610;28;19931;-62
2022/12/05 00:48:52;;;;;;;;;;;5.80;99.90;;;;;;5032614;28;19925;-64
2022/12/05 00:51:22;;;;;;;;;;;5.70;99.90;;;;;;5027823;28;20510;-62
2022/12/05 00:53:50;;;;;;;;;;;5.70;99.90;;;;;;5028015;28;19921;-61
2022/12/05 00:56:20;;;;;;;;;;;5.80;99.90;;;;;;5027828;28;19921;-61
2022/12/05 00:58:48;;;;;;;;;;;5.80;99.90;;;;;;5030883;28;20408;-61
2022/12/05 01:01:18;;;;;;;;;;;5.80;99.90;;;;;;5028514;28;20015;-62
2022/12/05 01:03:46;;;;;;;;;;;5.80;99.90;;;;;;5029702;28;19928;-64
2022/12/05 01:06:15;;;;;;;;;;;5.90;99.90;;;;;;5026271;28;20009;-62
2022/12/05 01:08:44;;;;;;;;;;;6.10;99.90;;;;;;5029409;28;19921;-61
2022/12/05 01:11:14;;;;;;;;;;;6.10;99.90;;;;;;5023895;28;20405;-61
2022/12/05 01:13:43;;;;;;;;;;;6.10;99.90;;;;;;5022596;28;19928;-60
2022/12/05 01:16:13;;;;;;;;;;;6.20;99.90;;;;;;5023760;28;19944;-62
2022/12/05 01:18:41;;;;;;;;;;;6.20;99.90;;;;;;5029483;28;19931;-61
2022/12/05 01:21:08;;;;;;;;;;;6.10;99.90;;;;;;5031511;28;19925;-61
2022/12/05 01:23:36;;;;;;;;;;;6.10;99.90;;;;;;5031737;28;19921;-61
2022/12/05 01:26:07;;;;;;;;;;;6.20;99.90;;;;;;5025579;28;19987;-61
2022/12/05 01:28:35;;;;;;;;;;;6.10;99.90;;;;;;5012725;28;20012;-61
2022/12/05 01:31:05;;;;;;;;;;;6.10;99.90;;;;;;5012701;28;19980;-61
2022/12/05 01:33:32;;;;;;;;;;;6.10;99.90;;;;;;5030330;28;20321;-61
2022/12/05 01:36:00;;;;;;;;;;;6.10;99.90;;;;;;5029023;28;19921;-61
2022/12/05 01:38:28;;;;;;;;;;;6.10;99.90;;;;;;5028139;28;19939;-61
2022/12/05 01:41:00;;;;;;;;;;;6.00;99.90;;;;;;5022585;28;19921;-61
2022/12/05 01:43:29;;;;;;;;;;;6.10;99.90;;;;;;5030128;28;19951;-61
2022/12/05 01:45:57;;;;;;;;;;;6.10;99.90;;;;;;5025344;28;19928;-62
2022/12/05 01:48:25;;;;;;;;;;;6.10;99.90;;;;;;5028666;28;19931;-61
2022/12/05 01:50:53;;;;;;;;;;;6.10;99.90;;;;;;5027437;28;19925;-62
2022/12/05 01:53:23;;;;;;;;;;;6.10;99.90;;;;;;5029623;28;20292;-62
2022/12/05 01:55:51;;;;;;;;;;;6.10;99.90;;;;;;5021485;28;19931;-63
2022/12/05 01:58:19;;;;;;;;;;;6.10;99.90;;;;;;5029748;28;19925;-62
2022/12/05 02:00:48;;;;;;;;;;;6.20;99.90;;;;;;5026229;28;20313;-62
2022/12/05 02:03:17;;;;;;;;;;;6.10;99.90;;;;;;5029966;28;19979;-62
2022/12/05 02:05:46;;;;;;;;;;;6.20;99.90;;;;;;5026163;28;20326;-62
2022/12/05 02:08:14;;;;;;;;;;;6.20;99.90;;;;;;5023783;28;19940;-62
2022/12/05 02:10:43;;;;;;;;;;;6.20;99.90;;;;;;5020914;28;20397;-62
2022/12/05 02:13:16;;;;;;;;;;;6.20;99.90;;;;;;5028632;28;19931;-62
2022/12/05 02:15:46;;;;;;;;;;;6.30;99.90;;;;;;5022941;28;19935;-62
2022/12/05 02:18:28;;;;;;;;;;;6.40;99.90;;;;;;5024352;28;20453;-62
2022/12/05 02:21:04;;;;;;;;;;;6.30;99.90;;;;;;5030588;28;19932;-62
2022/12/05 02:23:52;;;;;;;;;;;6.30;99.90;;;;;;5030482;28;19935;-62
2022/12/05 02:26:44;;;;;;;;;;;6.30;99.90;;;;;;5020916;28;20409;-62
2022/12/05 02:29:25;;;;;;;;;;;6.30;99.90;;;;;;5025025;28;19925;-62
2022/12/05 02:31:58;;;;;;;;;;;6.40;99.90;;;;;;5025452;28;19925;-62
2022/12/05 02:34:29;;;;;;;;;;;6.40;99.90;;;;;;5023969;28;19925;-62
2022/12/05 02:36:57;;;;;;;;;;;6.40;99.90;;;;;;5024872;28;19957;-62
2022/12/05 02:39:31;;;;;;;;;;;6.40;99.90;;;;;;5026540;28;19929;-62
2022/12/05 02:42:03;;;;;;;;;;;6.40;99.90;;;;;;5022717;28;20386;-62
2022/12/05 02:44:33;;;;;;;;;;;6.40;99.90;;;;;;5019361;28;19936;-62
2022/12/05 02:47:02;;;;;;;;;;;6.30;99.90;;;;;;5021442;28;19925;-62
2022/12/05 02:49:31;;;;;;;;;;;6.30;99.90;;;;;;5028318;28;19925;-61
2022/12/05 02:52:01;;;;;;;;;;;6.20;99.90;;;;;;5021840;28;19925;-62
2022/12/05 02:54:31;;;;;;;;;;;6.20;99.90;;;;;;5028092;28;19929;-62
2022/12/05 02:57:00;;;;;;;;;;;6.20;99.90;;;;;;5030112;28;19925;-63
2022/12/05 02:59:28;;;;;;;;;;;6.20;99.90;;;;;;5032239;28;19925;-61
2022/12/05 03:01:55;;;;;;;;;;;6.30;99.90;;;;;;5031426;28;19932;-62
2022/12/05 03:04:26;;;;;;;;;;;6.20;99.90;;;;;;5031228;28;20023;-62
2022/12/05 03:06:56;;;;;;;;;;;6.10;99.90;;;;;;5031199;28;19936;-62
2022/12/05 03:09:26;;;;;;;;;;;6.10;99.90;;;;;;5031314;28;19929;-62
2022/12/05 03:11:56;;;;;;;;;;;6.00;99.90;;;;;;5029423;28;20190;-62
2022/12/05 03:14:26;;;;;;;;;;;6.00;99.90;;;;;;5030073;28;20635;-62
2022/12/05 03:16:56;;;;;;;;;;;6.00;99.90;;;;;;5024402;28;20398;-62
2022/12/05 03:19:27;;;;;;;;;;;6.10;99.90;;;;;;5024606;28;19931;-62
2022/12/05 03:21:58;;;;;;;;;;;6.10;99.90;;;;;;5030257;28;19929;-62
2022/12/05 03:24:26;;;;;;;;;;;6.10;99.90;;;;;;5030502;28;19932;-62
2022/12/05 03:27:01;;;;;;;;;;;6.00;99.90;;;;;;5030108;28;19952;-62
2022/12/05 03:29:31;;;;;;;;;;;5.70;99.90;;;;;;5030624;28;19929;-61
2022/12/05 03:32:05;;;;;;;;;;;5.30;99.90;;;;;;5027148;28;20013;-62
2022/12/05 03:34:48;;;;;;;;;;;5.30;99.90;;;;;;5029053;28;20390;-62
2022/12/05 03:37:20;;;;;;;;;;;5.20;99.90;;;;;;5029847;28;20314;-61
2022/12/05 03:39:49;;;;;;;;;;;5.30;99.90;;;;;;5030281;28;20391;-62
2022/12/05 03:42:19;;;;;;;;;;;5.10;99.90;;;;;;5030021;28;19925;-62
2022/12/05 03:44:50;;;;;;;;;;;4.90;99.90;;;;;;5032328;28;19925;-61
2022/12/05 03:47:20;;;;;;;;;;;4.90;99.90;;;;;;5033753;28;19925;-61
2022/12/05 03:49:51;;;;;;;;;;;5.00;99.90;;;;;;5021885;28;19948;-61
2022/12/05 03:52:22;;;;;;;;;;;5.20;99.90;;;;;;5029973;28;19931;-61
2022/12/05 03:54:51;;;;;;;;;;;5.40;99.90;;;;;;5030686;28;19925;-61
2022/12/05 03:57:21;;;;;;;;;;;5.50;99.90;;;;;;5045371;23;19925;-67
2022/12/05 03:59:51;;;;;;;;;;;5.60;99.90;;;;;;5044740;28;19929;-66
2022/12/05 04:02:21;;;;;;;;;;;5.70;99.90;;;;;;5050492;28;19932;-66
2022/12/05 04:04:53;;;;;;;;;;;5.70;99.90;;;;;;5048470;28;20006;-65
2022/12/05 04:07:22;;;;;;;;;;;5.80;99.90;;;;;;5051016;28;19931;-66
2022/12/05 04:09:51;;;;;;;;;;;6.00;99.90;;;;;;5045983;28;20304;-67
2022/12/05 04:12:21;;;;;;;;;;;6.00;99.90;;;;;;5051650;28;19925;-66
2022/12/05 04:14:51;;;;;;;;;;;6.10;99.90;;;;;;5049656;28;19931;-66
2022/12/05 04:17:21;;;;;;;;;;;6.20;99.90;;;;;;5051822;28;19925;-67
2022/12/05 04:22:50;;;;;;;;;;;6.30;99.90;;;;;;5035357;28;19925;-67
2022/12/05 04:25:32;;;;;;;;;;;6.20;99.90;;;;;;5050364;28;19931;-67
2022/12/05 04:28:07;;;;;;;;;;;6.30;99.90;;;;;;5050478;28;19932;-66
2022/12/05 04:30:38;;;;;;;;;;;6.30;99.90;;;;;;5049254;28;19929;-66
2022/12/05 04:33:08;;;;;;;;;;;6.20;99.90;;;;;;5050408;28;19932;-66
2022/12/05 04:35:40;;;;;;;;;;;6.30;99.90;;;;;;5051188;28;19929;-66
2022/12/05 04:38:10;;;;;;;;;;;6.30;99.90;;;;;;5048302;28;19956;-66
2022/12/05 04:40:39;;;;;;;;;;;6.30;99.90;;;;;;5043797;28;19929;-66
2022/12/05 04:43:07;;;;;;;;;;;6.20;99.90;;;;;;5050185;28;19936;-66
2022/12/05 04:45:36;;;;;;;;;;;6.10;99.90;;;;;;5052529;28;20313;-66
2022/12/05 04:48:07;;;;;;;;;;;6.10;99.90;;;;;;5049618;28;19931;-66
2022/12/05 04:50:36;;;;;;;;;;;6.20;99.90;;;;;;5051462;28;19929;-68
2022/12/05 04:53:06;;;;;;;;;;;6.20;99.90;;;;;;5050937;28;19931;-66
2022/12/05 04:55:36;;;;;;;;;;;6.20;99.90;;;;;;5048894;28;19939;-67
2022/12/05 04:58:07;;;;;;;;;;;6.20;99.90;;;;;;5047258;28;20356;-66
2022/12/05 05:00:37;;;;;;;;;;;6.30;99.90;;;;;;5048556;28;19932;-66
2022/12/05 05:03:08;;;;;;;;;;;6.30;99.90;;;;;;5048043;28;19925;-68
2022/12/05 05:05:37;;;;;;;;;;;6.30;99.90;;;;;;5048597;28;20401;-67
2022/12/05 05:08:15;;;;;;;;;;;6.30;99.90;;;;;;5048185;28;19939;-67
2022/12/05 05:10:47;;;;;;;;;;;6.30;99.90;;;;;;5039355;28;19924;-66
2022/12/05 05:13:15;;;;;;;;;;;6.30;99.90;;;;;;5049255;28;19935;-67
2022/12/05 05:15:43;;;;;;;;;;;6.30;99.90;;;;;;5050495;28;19931;-66
2022/12/05 05:18:12;;;;;;;;;;;6.00;99.90;;;;;;5030632;28;19925;-66
2022/12/05 05:20:40;;;;;;;;;;;5.60;99.90;;;;;;5035137;28;20385;-65
2022/12/05 05:23:09;;;;;;;;;;;5.20;99.90;;;;;;5040293;28;20294;-66
2022/12/05 05:25:36;;;;;;;;;;;4.80;99.90;;;;;;5048643;28;20393;-65
2022/12/05 05:28:04;;;;;;;;;;;4.70;99.90;;;;;;5040137;28;19944;-66
2022/12/05 05:30:32;;;;;;;;;;;4.60;99.90;;;;;;5052844;28;19939;-66
2022/12/05 05:33:00;;;;;;;;;;;4.60;99.90;;;;;;5050028;28;20427;-66
2022/12/05 05:35:28;;;;;;;;;;;4.60;99.90;;;;;;5051182;28;20338;-66
2022/12/05 05:37:55;;;;;;;;;;;4.60;99.90;;;;;;5048914;28;19947;-66
2022/12/05 05:40:24;;;;;;;;;;;4.80;99.90;;;;;;5050959;28;19931;-66
2022/12/05 05:42:52;;;;;;;;;;;4.90;99.90;;;;;;5044428;28;19929;-66
2022/12/05 05:45:20;;;;;;;;;;;5.00;99.90;;;;;;5056377;28;19931;-66
2022/12/05 05:47:48;;;;;;;;;;;4.90;99.90;;;;;;5056627;28;19925;-65
2022/12/05 05:50:16;;;;;;;;;;;4.90;99.90;;;;;;5033971;28;20032;-66
2022/12/05 05:52:49;;;;;;;;;;;5.10;99.90;;;;;;5037438;28;19933;-66
2022/12/05 05:55:16;;;;;;;;;;;4.80;99.90;;;;;;5041357;28;20035;-66
2022/12/05 05:57:45;;;;;;;;;;;4.60;99.90;;;;;;5039750;28;19939;-66
2022/12/05 06:00:14;;;;;;;;;;;4.60;99.90;;;;;;5034153;28;20007;-64
2022/12/05 06:02:42;;;;;;;;;;;4.60;99.90;;;;;;5035874;28;19933;-65
2022/12/05 06:05:10;;;;;;;;;;;4.60;99.90;;;;;;5033918;28;19932;-64
2022/12/05 06:07:37;;;;;;;;;;;4.60;99.90;;;;;;5038523;28;19943;-64
2022/12/05 06:10:06;;;;;;;;;;;4.50;99.90;;;;;;5035915;28;19975;-66
2022/12/05 06:12:35;;;;;;;;;;;4.40;99.90;;;;;;5035960;28;20006;-66
2022/12/05 06:15:04;;;;;;;;;;;4.30;99.90;;;;;;5036552;28;19928;-66
2022/12/05 06:17:32;;;;;;;;;;;4.30;99.90;;;;;;5036068;28;19955;-64
2022/12/05 06:20:00;;;;;;;;;;;4.20;99.90;;;;;;5036451;28;19925;-65
2022/12/05 06:22:29;;;;;;;;;;;4.00;99.90;;;;;;5034549;28;20512;-66
2022/12/05 06:24:56;;;;;;;;;;;3.90;99.90;;;;;;5036481;28;20450;-66
2022/12/05 06:27:24;;;;;;;;;;;3.80;99.90;;;;;;5038172;28;19933;-66
2022/12/05 06:29:52;;;;;;;;;;;3.80;99.90;;;;;;5040932;28;19959;-67
2022/12/05 06:32:21;;;;;;;;;;;3.70;99.90;;;;;;5036600;28;19939;-65
2022/12/05 06:34:49;;;;;;;;;;;3.80;99.90;;;;;;5037642;28;19939;-65
2022/12/05 06:37:17;;;;;;;;;;;3.90;99.90;;;;;;5042343;28;19940;-65
2022/12/05 06:39:45;;;;;;;;;;;3.80;99.90;;;;;;5040862;28;19933;-64
2022/12/05 06:42:13;;;;;;;;;;;3.80;99.90;;;;;;5038254;28;19943;-64
2022/12/05 06:44:40;;;;;;;;;;;3.80;99.90;;;;;;5041040;28;19964;-65
2022/12/05 06:47:08;;;;;;;;;;;3.80;99.90;;;;;;5041347;28;19971;-64
2022/12/05 06:49:37;;;;;;;;;;;3.90;99.90;;;;;;5041454;28;19943;-64
2022/12/05 06:52:05;;;;;;;;;;;3.90;99.90;;;;;;5038651;28;20393;-66
2022/12/05 06:54:33;;;;;;;;;;;3.90;99.90;;;;;;5040643;28;19936;-69
2022/12/05 06:57:00;;;;;;;;;;;3.90;99.90;;;;;;5042504;28;19946;-65
2022/12/05 06:59:28;;;;;;;;;;;4.00;99.90;;;;;;5036150;28;19933;-65
2022/12/05 07:01:55;;;;;;;;;;;4.00;99.90;;;;;;5033812;28;19940;-64
2022/12/05 07:04:23;;;;;;;;;;;4.00;99.90;;;;;;5040422;28;19932;-65
2022/12/05 07:06:53;;;;;;;;;;;4.00;99.90;;;;;;5037403;28;19940;-66
2022/12/05 07:09:44;;;;;;;;;;;4.10;99.90;;;;;;5040081;28;19933;-66
2022/12/05 07:12:10;;;;;;;;;;;4.00;99.90;;;;;;5036647;28;19932;-64
2022/12/05 07:14:38;;;;;;;;;;;4.00;99.90;;;;;;5039107;28;19939;-65
2022/12/05 07:17:15;;;;;;;;;;;4.00;99.90;;;;;;5038544;28;20013;-65
2022/12/05 07:19:42;;;;;;;;;;;4.00;99.90;;;;;;5035498;28;19947;-65
2022/12/05 07:22:11;;;;;;;;;;;3.90;99.90;;;;;;5034367;28;19939;-65
2022/12/05 07:24:43;;;;;;;;;;;3.90;99.90;;;;;;5038469;28;19987;-65
2022/12/05 07:27:10;;;;;;;;;;;3.90;99.90;;;;;;5041115;28;20393;-65
2022/12/05 07:29:38;;;;;;;;;;;4.00;99.90;;;;;;5042155;28;19962;-66
2022/12/05 07:32:06;;;;;;;;;;;4.00;99.90;;;;;;5041766;28;19932;-65
2022/12/05 07:34:34;;;;;;;;;;;3.90;99.90;;;;;;5044205;28;20286;-66
2022/12/05 07:37:02;;;;;;;;;;;3.80;99.90;;;;;;5044576;28;19925;-66
2022/12/05 07:39:31;;;;;;;;;;;3.90;99.90;;;;;;5044515;28;19924;-66
2022/12/05 07:41:59;;;;;;;;;;;3.90;99.90;;;;;;5040940;28;19939;-65
2022/12/05 07:44:26;;;;;;;;;;;3.90;99.90;;;;;;5043581;28;19932;-66
2022/12/05 07:46:54;;;;;;;;;;;3.80;99.90;;;;;;5043991;28;20180;-66
2022/12/05 07:49:25;;;;;;;;;;;3.80;99.90;;;;;;5044742;28;19936;-65
2022/12/05 07:51:53;;;;;;;;;;;3.80;99.90;;;;;;5040118;28;19933;-66
2022/12/05 07:54:20;;;;;;;;;;;3.90;99.90;;;;;;5044036;28;19939;-65
2022/12/05 07:56:49;;;;;;;;;;;3.90;99.90;;;;;;5043607;28;20642;-65
2022/12/05 07:59:17;;;;;;;;;;;3.90;99.90;;;;;;5042172;28;19933;-66
2022/12/05 08:01:45;;;;;;;;;;;3.80;99.90;;;;;;5039816;28;19932;-65
2022/12/05 08:04:13;;;;;;;;;;;3.80;99.90;;;;;;5041167;28;19929;-65
2022/12/05 08:06:42;;;;;;;;;;;3.80;99.90;;;;;;5041559;28;20423;-65
2022/12/05 08:09:11;;;;;;;;;;;3.80;99.90;;;;;;5039566;28;19933;-65
2022/12/05 08:11:38;;;;;;;;;;;3.70;99.90;;;;;;5039393;28;19932;-65
2022/12/05 08:14:08;;;;;;;;;;;3.70;99.90;;;;;;5043219;28;19978;-66
2022/12/05 08:16:35;;;;;;;;;;;3.70;99.90;;;;;;5043626;28;19935;-65
2022/12/05 08:19:04;;;;;;;;;;;3.70;99.90;;;;;;5041046;28;20015;-66
2022/12/05 08:21:32;;;;;;;;;;;3.70;99.90;;;;;;5040803;28;19929;-66
2022/12/05 08:23:59;;;;;;;;;;;3.70;99.90;;;;;;5042373;28;20701;-66
2022/12/05 08:26:28;;;;;;;;;;;3.60;99.90;;;;;;5043477;28;19940;-66
2022/12/05 08:28:56;;;;;;;;;;;3.60;99.90;;;;;;5043487;28;19933;-66
2022/12/05 08:31:27;;;;;;;;;;;3.60;99.90;;;;;;5042831;28;19939;-65
2022/12/05 08:33:56;;;;;;;;;;;3.60;99.90;;;;;;5041648;28;21477;-65
2022/12/05 08:36:27;;;;;;;;;;;3.60;99.90;;;;;;5042035;28;19941;-65
2022/12/05 08:38:55;;;;;;;;;;;3.60;99.90;;;;;;5043169;28;20424;-65
2022/12/05 08:41:27;;;;;;;;;;;3.50;99.90;;;;;;5043058;28;19933;-65
2022/12/05 08:43:55;;;;;;;;;;;3.50;99.90;;;;;;5041179;28;20401;-64
2022/12/05 08:46:23;;;;;;;;;;;3.50;99.90;;;;;;5041635;28;19933;-65
2022/12/05 08:48:52;;;;;;;;;;;3.50;99.90;;;;;;5042348;28;19933;-66
2022/12/05 08:51:20;;;;;;;;;;;3.50;99.90;;;;;;5041401;28;19939;-65
2022/12/05 08:53:48;;;;;;;;;;;3.60;99.90;;;;;;5040885;28;20320;-65
2022/12/05 08:56:15;;;;;;;;;;;3.60;99.90;;;;;;5043396;28;19928;-65
2022/12/05 08:58:47;;;;;;;;;;;3.60;99.90;;;;;;5042885;28;19940;-65
2022/12/05 09:01:16;;;;;;;;;;;3.60;99.90;;;;;;5042093;28;20049;-65
2022/12/05 09:03:44;;;;;;;;;;;3.60;99.90;;;;;;5040845;28;19940;-65
2022/12/05 09:06:17;;;;;;;;;;;3.50;99.90;;;;;;5040266;28;19933;-65
2022/12/05 09:08:45;;;;;;;;;;;3.60;99.90;;;;;;5042864;28;20428;-65
2022/12/05 09:11:15;;;;;;;;;;;3.60;99.90;;;;;;5041900;28;21140;-65
2022/12/05 09:13:42;;;;;;;;;;;3.60;99.90;;;;;;5038018;28;19933;-65
2022/12/05 09:16:11;;;;;;;;;;;3.60;99.90;;;;;;5040984;28;19939;-65
2022/12/05 09:18:39;;;;;;;;;;;3.60;99.90;;;;;;5042117;28;19936;-66
2022/12/05 09:21:07;;;;;;;;;;;3.60;99.90;;;;;;5041011;28;19933;-66
2022/12/05 09:23:36;;;;;;;;;;;3.70;99.90;;;;;;5040320;28;19931;-65
2022/12/05 09:26:04;;;;;;;;;;;3.80;99.90;;;;;;5041539;28;19925;-65
2022/12/05 09:28:33;;;;;;;;;;;3.80;99.90;;;;;;5040271;28;19932;-65
2022/12/05 09:31:02;;;;;;;;;;;3.90;99.90;;;;;;5041535;28;19925;-65
2022/12/05 09:33:30;;;;;;;;;;;3.90;99.90;;;;;;5040666;28;19925;-66
2022/12/05 09:35:58;;;;;;;;;;;3.90;99.90;;;;;;5042259;28;20401;-67
2022/12/05 09:38:26;;;;;;;;;;;4.00;99.90;;;;;;5042711;28;19932;-66
2022/12/05 09:41:01;;;;;;;;;;;4.00;99.90;;;;;;5039691;28;21126;-67
2022/12/05 09:43:33;;;;;;;;;;;4.10;99.90;;;;;;5039104;28;20127;-68
2022/12/05 09:46:03;;;;;;;;;;;4.00;99.90;;;;;;5042925;28;19931;-65
2022/12/05 09:48:31;;;;;;;;;;;4.00;99.90;;;;;;5044116;28;20347;-66
2022/12/05 09:51:00;;;;;;;;;;;4.00;99.90;;;;;;5040948;28;19929;-66
2022/12/05 09:53:29;;;;;;;;;;;4.00;99.90;;;;;;5039723;28;19929;-67
2022/12/05 09:56:01;;;;;;;;;;;4.00;99.90;;;;;;5041919;28;20311;-66
2022/12/05 09:58:36;;;;;;;;;;;4.00;99.90;;;;;;5041930;28;20419;-66
2022/12/05 10:01:10;;;;;;;;;;;4.00;99.90;;;;;;5040975;28;19925;-66
2022/12/05 10:03:41;;;;;;;;;;;4.20;99.90;;;;;;5038262;28;19937;-66
2022/12/05 10:06:13;;;;;;;;;;;4.20;99.90;;;;;;5041324;28;19929;-65
2022/12/05 10:08:47;;;;;;;;;;;4.20;99.90;;;;;;5039589;28;19929;-65
2022/12/05 10:11:18;;;;;;;;;;;4.30;99.90;;;;;;5040943;28;19933;-65
2022/12/05 10:13:50;;;;;;;;;;;4.30;99.90;;;;;;5039742;28;19943;-65
2022/12/05 10:16:20;;;;;;;;;;;4.30;99.90;;;;;;5042310;28;20062;-65
2022/12/05 10:18:50;;;;;;;;;;;4.30;99.90;;;;;;5041230;28;19932;-65
2022/12/05 10:21:19;;;;;;;;;;;4.30;99.90;;;;;;5041506;28;19933;-66
2022/12/05 10:23:51;;;;;;;;;;;4.20;99.90;;;;;;5039203;28;19933;-66
2022/12/05 10:26:29;;;;;;;;;;;4.30;99.90;;;;;;5041964;28;20730;-65
2022/12/05 10:28:59;;;;;;;;;;;4.40;99.90;;;;;;5041763;28;19933;-65
2022/12/05 10:31:29;;;;;;;;;;;4.40;99.90;;;;;;5041884;28;19933;-65
2022/12/05 10:34:01;;;;;;;;;;;4.50;99.90;;;;;;5039916;28;19932;-66
2022/12/05 10:36:28;;;;;;;;;;;4.50;99.90;;;;;;5040475;28;19925;-66
2022/12/05 10:38:56;;;;;;;;;;;4.50;99.90;;;;;;5040951;28;19932;-66
2022/12/05 10:41:24;;;;;;;;;;;4.50;99.90;;;;;;5041386;28;19933;-66
2022/12/05 10:43:53;;;;;;;;;;;4.60;99.90;;;;;;5039135;28;19947;-66
2022/12/05 10:46:21;;;;;;;;;;;4.60;99.90;;;;;;5042085;28;20485;-66
2022/12/05 10:48:49;;;;;;;;;;;4.60;99.90;;;;;;5041323;28;19932;-67
2022/12/05 10:51:17;;;;;;;;;;;4.70;99.90;;;;;;5041028;28;19933;-67
2022/12/05 10:53:48;;;;;;;;;;;4.70;99.90;;;;;;5038940;28;19928;-65
2022/12/05 10:56:40;;;;;;;;;;;4.80;99.90;;;;;;5041999;28;19960;-66
2022/12/05 10:59:10;;;;;;;;;;;4.70;99.90;;;;;;5025909;28;19933;-66
2022/12/05 11:01:44;;;;;;;;;;;4.70;99.90;;;;;;5038505;28;19976;-66
2022/12/05 11:04:19;;;;;;;;;;;4.70;99.90;;;;;;5038888;28;19933;-66
2022/12/05 11:06:51;;;;;;;;;;;4.70;99.90;;;;;;5040655;28;19940;-66
2022/12/05 11:09:20;;;;;;;;;;;4.60;99.90;;;;;;5041839;28;19940;-67
2022/12/05 11:11:57;;;;;;;;;;;4.70;99.90;;;;;;5038277;28;19928;-66
2022/12/05 11:14:28;;;;;;;;;;;4.60;99.90;;;;;;5041948;28;19928;-66
2022/12/05 11:16:57;;;;;;;;;;;4.60;99.90;;;;;;5044003;28;19939;-67
2022/12/05 11:19:26;;;;;;;;;;;4.50;99.90;;;;;;5044554;28;19939;-66
2022/12/05 11:21:54;;;;;;;;;;;4.60;99.90;;;;;;5041982;28;19933;-66
2022/12/05 11:24:22;;;;;;;;;;;4.60;99.90;;;;;;5045266;28;19932;-66
2022/12/05 11:26:50;;;;;;;;;;;4.60;99.90;;;;;;5044857;28;20163;-65
2022/12/05 11:29:30;;;;;;;;;;;4.70;99.90;;;;;;5045011;28;19928;-66
2022/12/05 11:31:57;;;;;;;;;;;4.60;99.90;;;;;;5041178;28;20327;-66
2022/12/05 11:34:27;;;;;;;;;;;4.70;99.90;;;;;;5044549;28;19929;-66
2022/12/05 11:36:57;;;;;;;;;;;4.60;99.90;;;;;;5044338;28;19939;-66
2022/12/05 11:39:25;;;;;;;;;;;4.50;99.90;;;;;;5043909;28;19940;-67
2022/12/05 11:42:10;;;;;;;;;;;4.50;99.90;;;;;;5041471;28;19933;-67
2022/12/05 11:44:45;;;;;;;;;;;4.50;99.90;;;;;;5043232;28;19971;-65
2022/12/05 11:47:17;;;;;;;;;;;4.50;99.90;;;;;;5044240;28;20409;-66
2022/12/05 11:49:55;;;;;;;;;;;4.40;99.90;;;;;;5043524;28;19932;-66
2022/12/05 11:52:26;;;;;;;;;;;4.40;99.90;;;;;;5042534;28;19929;-66
2022/12/05 11:54:55;;;;;;;;;;;4.40;99.90;;;;;;5044347;28;19976;-66
2022/12/05 11:57:40;;;;;;;;;;;4.40;99.90;;;;;;5042441;28;19936;-66
2022/12/05 12:00:24;;;;;;;;;;;4.30;99.90;;;;;;5042188;28;19940;-65
2022/12/05 12:03:09;;;;;;;;;;;4.30;99.90;;;;;;5040596;28;20928;-66
2022/12/05 12:05:41;;;;;;;;;;;4.40;99.90;;;;;;5043229;28;20893;-65
2022/12/05 12:08:13;;;;;;;;;;;4.40;99.90;;;;;;5043216;28;20020;-65
2022/12/05 12:10:45;;;;;;;;;;;4.40;99.90;;;;;;5042379;28;20030;-65
2022/12/05 12:13:20;;;;;;;;;;;4.40;99.90;;;;;;5041589;28;19928;-66
2022/12/05 12:15:53;;;;;;;;;;;4.40;99.90;;;;;;5044124;28;19933;-67
2022/12/05 12:18:30;;;;;;;;;;;4.50;99.90;;;;;;5044435;28;20950;-66
2022/12/05 12:21:03;;;;;;;;;;;4.60;99.90;;;;;;5042860;28;19929;-65
2022/12/05 12:23:38;;;;;;;;;;;4.60;99.90;;;;;;5040299;28;20500;-66
2022/12/05 12:26:09;;;;;;;;;;;4.60;99.90;;;;;;5040642;28;19932;-66
2022/12/05 12:28:44;;;;;;;;;;;4.70;99.90;;;;;;5044060;28;19939;-66
2022/12/05 12:31:23;;;;;;;;;;;4.70;99.90;;;;;;5042403;28;19940;-65
2022/12/05 12:33:53;;;;;;;;;;;4.70;99.90;;;;;;5041618;28;20028;-66
2022/12/05 12:36:25;;;;;;;;;;;4.70;99.90;;;;;;5043541;28;20329;-67
2022/12/05 12:39:08;;;;;;;;;;;4.70;99.90;;;;;;5043572;28;19933;-66
2022/12/05 12:41:43;;;;;;;;;;;4.80;99.90;;;;;;5041758;28;20037;-66
2022/12/05 12:44:22;;;;;;;;;;;4.80;99.90;;;;;;5042531;28;20305;-66
2022/12/05 12:46:53;;;;;;;;;;;4.80;99.90;;;;;;5042727;28;19940;-66
2022/12/05 12:49:30;;;;;;;;;;;4.80;99.90;;;;;;5043952;28;19939;-66
2022/12/05 12:52:01;;;;;;;;;;;4.80;99.90;;;;;;5039427;28;20309;-66
2022/12/05 12:54:46;;;;;;;;;;;4.80;99.90;;;;;;5042524;28;19940;-68
2022/12/05 12:57:42;;;;;;;;;;;4.90;99.90;;;;;;5043091;28;19925;-65
2022/12/05 13:00:13;;;;;;;;;;;5.00;99.90;;;;;;5041612;28;19939;-66
2022/12/05 13:02:44;;;;;;;;;;;5.00;99.90;;;;;;5039449;28;19943;-66
2022/12/05 13:05:20;;;;;;;;;;;4.90;99.90;;;;;;5042552;28;20046;-67
2022/12/05 13:07:51;;;;;;;;;;;4.90;99.90;;;;;;5042941;28;19939;-66
2022/12/05 13:10:24;;;;;;;;;;;4.90;99.90;;;;;;5042055;28;19939;-65
2022/12/05 13:12:52;;;;;;;;;;;4.90;99.90;;;;;;5040403;28;19932;-66
2022/12/05 13:15:21;;;;;;;;;;;5.10;99.90;;;;;;5043115;28;20492;-66
2022/12/05 13:17:51;;;;;;;;;;;5.10;99.90;;;;;;5042268;28;19933;-66
2022/12/05 13:20:20;;;;;;;;;;;5.00;99.90;;;;;;5040560;28;19932;-66
2022/12/05 13:22:48;;;;;;;;;;;5.10;99.90;;;;;;5040090;28;19939;-66
2022/12/05 13:25:17;;;;;;;;;;;5.00;99.90;;;;;;5043273;28;19929;-66
2022/12/05 13:27:54;;;;;;;;;;;5.10;99.90;;;;;;5042371;28;20029;-66
2022/12/05 13:30:22;;;;;;;;;;;5.00;99.90;;;;;;5042722;28;19932;-66
2022/12/05 13:32:56;;;;;;;;;;;5.00;99.90;;;;;;5040377;28;19936;-66
2022/12/05 13:43:52;;;;;;;;;;;4.70;99.90;;;;;;5040655;28;19943;-66
2022/12/05 13:46:34;;;;;;;;;;;4.70;99.90;;;;;;5041066;28;19939;-67
2022/12/05 13:49:05;;;;;;;;;;;4.70;99.90;;;;;;5039533;28;19929;-66
2022/12/05 13:51:35;;;;;;;;;;;4.70;99.90;;;;;;5040873;28;20019;-67
2022/12/05 13:54:06;;;;;;;;;;;4.60;99.90;;;;;;5040715;28;19932;-67
2022/12/05 13:56:47;;;;;;;;;;;4.60;99.90;;;;;;5042041;28;19924;-66
2022/12/05 13:59:30;;;;;;;;;;;4.60;99.90;;;;;;5041934;28;19937;-66
2022/12/05 14:01:57;;;;;;;;;;;4.60;99.90;;;;;;5039074;28;19939;-66
2022/12/05 14:04:43;;;;;;;;;;;4.60;99.90;;;;;;5042507;28;19929;-66
2022/12/05 14:07:12;;;;;;;;;;;4.70;99.90;;;;;;5041451;28;19952;-65
2022/12/05 14:09:49;;;;;;;;;;;4.70;99.90;;;;;;5040558;28;19933;-66
2022/12/05 14:12:31;;;;;;;;;;;4.70;99.90;;;;;;5039384;28;19939;-66
2022/12/05 14:14:59;;;;;;;;;;;4.60;99.90;;;;;;5040824;28;19925;-66
2022/12/05 14:17:28;;;;;;;;;;;4.60;99.90;;;;;;5040985;28;19932;-66
2022/12/05 14:20:18;;;;;;;;;;;4.70;99.90;;;;;;5041231;28;19935;-66
2022/12/05 14:22:57;;;;;;;;;;;4.60;99.90;;;;;;5039808;28;19932;-66
2022/12/05 14:25:40;;;;;;;;;;;4.60;99.90;;;;;;5042859;28;20662;-66
2022/12/05 14:28:33;;;;;;;;;;;4.70;99.90;;;;;;5038541;28;20015;-67
2022/12/05 14:31:08;;;;;;;;;;;4.80;99.90;;;;;;5040324;28;20297;-66
2022/12/05 14:33:36;;;;;;;;;;;4.80;99.90;;;;;;5040055;28;19952;-66
2022/12/05 14:36:06;;;;;;;;;;;4.80;99.90;;;;;;5040825;28;19925;-67
2022/12/05 14:38:36;;;;;;;;;;;4.80;99.90;;;;;;5040881;28;19925;-66
2022/12/05 14:41:12;;;;;;;;;;;4.80;99.90;;;;;;5038361;28;20282;-67
2022/12/05 14:43:41;;;;;;;;;;;4.80;99.90;;;;;;5038728;28;19932;-66
2022/12/05 14:46:15;;;;;;;;;;;4.70;99.90;;;;;;5041315;28;19966;-66
2022/12/05 14:48:46;;;;;;;;;;;4.80;99.90;;;;;;5040732;28;19967;-66
2022/12/05 14:51:35;;;;;;;;;;;4.80;99.90;;;;;;5044595;28;21033;-67
2022/12/05 14:54:06;;;;;;;;;;;4.80;99.90;;;;;;5036261;28;20062;-66
2022/12/05 14:56:39;;;;;;;;;;;4.80;99.90;;;;;;5045880;28;19931;-66
2022/12/05 14:59:14;;;;;;;;;;;4.80;99.90;;;;;;5026215;28;19939;-67
2022/12/05 15:01:44;;;;;;;;;;;4.80;99.90;;;;;;5042885;28;19939;-67
2022/12/05 15:04:17;;;;;;;;;;;4.80;99.90;;;;;;5044948;28;19933;-66